sensor_id;sensor_type;location;lat;lon;timestamp;pressure;altitude;pressure_sealevel;temperature;humidity
59588;BME280;45412;54.472;18.464;2023-04-29T00:00:24;99808.69;;;5.71;57.47
59588;BME280;45412;54.472;18.464;2023-04-29T00:03:16;99807.58;;;5.72;56.71
59588;BME280;45412;54.472;18.464;2023-04-29T00:06:05;99808.08;;;5.72;56.97
59588;BME280;45412;54.472;18.464;2023-04-29T00:08:52;99798.63;;;5.71;56.74
59588;BME280;45412;54.472;18.464;2023-04-29T00:11:39;99796.76;;;5.70;56.53
59588;BME280;45412;54.472;18.464;2023-04-29T00:14:27;99793.02;;;5.68;56.35
59588;BME280;45412;54.472;18.464;2023-04-29T00:17:13;99789.04;;;5.66;56.28
59588;BME280;45412;54.472;18.464;2023-04-29T00:20:02;99792.84;;;5.65;55.71
59588;BME280;45412;54.472;18.464;2023-04-29T00:22:49;99792.38;;;5.64;55.45
59588;BME280;45412;54.472;18.464;2023-04-29T00:25:35;99789.41;;;5.63;55.70
59588;BME280;45412;54.472;18.464;2023-04-29T00:28:23;99783.60;;;5.60;55.61
59588;BME280;45412;54.472;18.464;2023-04-29T00:31:10;99780.52;;;5.59;55.91
59588;BME280;45412;54.472;18.464;2023-04-29T00:33:57;99780.86;;;5.56;55.96
59588;BME280;45412;54.472;18.464;2023-04-29T00:36:44;99781.73;;;5.54;55.62
59588;BME280;45412;54.472;18.464;2023-04-29T00:39:31;99777.23;;;5.52;55.68
59588;BME280;45412;54.472;18.464;2023-04-29T00:42:17;99774.56;;;5.50;55.73
59588;BME280;45412;54.472;18.464;2023-04-29T00:45:05;99773.98;;;5.48;55.77
59588;BME280;45412;54.472;18.464;2023-04-29T00:47:54;99776.19;;;5.46;55.64
59588;BME280;45412;54.472;18.464;2023-04-29T00:50:41;99771.11;;;5.46;55.35
59588;BME280;45412;54.472;18.464;2023-04-29T00:53:30;99773.59;;;5.46;55.14
59588;BME280;45412;54.472;18.464;2023-04-29T00:56:18;99770.38;;;5.46;55.52
59588;BME280;45412;54.472;18.464;2023-04-29T00:59:06;99770.55;;;5.46;55.43
59588;BME280;45412;54.472;18.464;2023-04-29T01:01:55;99769.54;;;5.46;55.21
59588;BME280;45412;54.472;18.464;2023-04-29T01:04:44;99773.45;;;5.45;55.31
59588;BME280;45412;54.472;18.464;2023-04-29T01:07:44;99768.71;;;5.45;55.44
59588;BME280;45412;54.472;18.464;2023-04-29T01:11:13;99769.60;;;5.45;55.27
59588;BME280;45412;54.472;18.464;2023-04-29T01:13:59;99770.00;;;5.44;55.09
59588;BME280;45412;54.472;18.464;2023-04-29T01:16:55;99766.71;;;5.46;55.01
59588;BME280;45412;54.472;18.464;2023-04-29T01:19:51;99764.09;;;5.46;55.36
59588;BME280;45412;54.472;18.464;2023-04-29T01:22:41;99762.70;;;5.45;55.24
59588;BME280;45412;54.472;18.464;2023-04-29T01:25:28;99765.68;;;5.46;55.37
59588;BME280;45412;54.472;18.464;2023-04-29T01:28:58;99759.34;;;5.46;55.21
59588;BME280;45412;54.472;18.464;2023-04-29T01:32:16;99758.48;;;5.45;55.32
59588;BME280;45412;54.472;18.464;2023-04-29T01:35:43;99756.76;;;5.45;55.30
59588;BME280;45412;54.472;18.464;2023-04-29T01:38:52;99758.02;;;5.44;55.43
59588;BME280;45412;54.472;18.464;2023-04-29T01:44:42;99751.06;;;5.43;55.70
59588;BME280;45412;54.472;18.464;2023-04-29T01:47:30;99751.91;;;5.43;55.67
59588;BME280;45412;54.472;18.464;2023-04-29T01:50:17;99750.70;;;5.43;55.81
59588;BME280;45412;54.472;18.464;2023-04-29T01:53:04;99747.59;;;5.42;55.70
59588;BME280;45412;54.472;18.464;2023-04-29T01:55:51;99745.63;;;5.42;56.05
59588;BME280;45412;54.472;18.464;2023-04-29T01:59:00;99742.13;;;5.42;56.59
59588;BME280;45412;54.472;18.464;2023-04-29T02:02:02;99740.55;;;5.42;56.55
59588;BME280;45412;54.472;18.464;2023-04-29T02:04:50;99734.98;;;5.41;56.69
59588;BME280;45412;54.472;18.464;2023-04-29T02:07:36;99732.17;;;5.41;56.89
59588;BME280;45412;54.472;18.464;2023-04-29T02:10:25;99728.06;;;5.42;57.20
59588;BME280;45412;54.472;18.464;2023-04-29T02:13:24;99726.98;;;5.42;57.23
59588;BME280;45412;54.472;18.464;2023-04-29T02:16:13;99723.06;;;5.43;58.35
59588;BME280;45412;54.472;18.464;2023-04-29T02:19:12;99722.17;;;5.43;58.01
59588;BME280;45412;54.472;18.464;2023-04-29T02:21:59;99724.29;;;5.43;58.38
59588;BME280;45412;54.472;18.464;2023-04-29T02:24:46;99720.63;;;5.43;58.12
59588;BME280;45412;54.472;18.464;2023-04-29T02:27:33;99714.02;;;5.42;58.22
59588;BME280;45412;54.472;18.464;2023-04-29T02:30:19;99713.11;;;5.42;57.94
59588;BME280;45412;54.472;18.464;2023-04-29T02:33:06;99708.11;;;5.40;57.95
59588;BME280;45412;54.472;18.464;2023-04-29T02:35:54;99707.67;;;5.39;58.11
59588;BME280;45412;54.472;18.464;2023-04-29T02:38:42;99707.38;;;5.38;58.35
59588;BME280;45412;54.472;18.464;2023-04-29T02:41:29;99697.26;;;5.37;58.76
59588;BME280;45412;54.472;18.464;2023-04-29T02:44:15;99698.43;;;5.34;58.29
59588;BME280;45412;54.472;18.464;2023-04-29T02:47:02;99696.58;;;5.34;57.94
59588;BME280;45412;54.472;18.464;2023-04-29T02:49:49;99693.65;;;5.32;57.75
59588;BME280;45412;54.472;18.464;2023-04-29T02:52:36;99693.48;;;5.33;57.91
59588;BME280;45412;54.472;18.464;2023-04-29T02:55:23;99690.81;;;5.33;57.98
59588;BME280;45412;54.472;18.464;2023-04-29T02:58:10;99692.96;;;5.35;57.30
59588;BME280;45412;54.472;18.464;2023-04-29T03:00:57;99692.02;;;5.39;57.07
59588;BME280;45412;54.472;18.464;2023-04-29T03:03:43;99692.48;;;5.42;57.38
59588;BME280;45412;54.472;18.464;2023-04-29T03:06:30;99691.05;;;5.46;57.32
59588;BME280;45412;54.472;18.464;2023-04-29T03:09:18;99693.26;;;5.50;57.16
59588;BME280;45412;54.472;18.464;2023-04-29T03:12:05;99690.83;;;5.52;57.13
59588;BME280;45412;54.472;18.464;2023-04-29T03:14:51;99692.96;;;5.55;57.15
59588;BME280;45412;54.472;18.464;2023-04-29T03:17:38;99689.04;;;5.58;56.88
59588;BME280;45412;54.472;18.464;2023-04-29T03:20:25;99691.13;;;5.61;57.43
59588;BME280;45412;54.472;18.464;2023-04-29T03:23:11;99686.55;;;5.65;57.62
59588;BME280;45412;54.472;18.464;2023-04-29T03:25:59;99686.44;;;5.66;56.80
59588;BME280;45412;54.472;18.464;2023-04-29T03:28:46;99680.73;;;5.68;57.19
59588;BME280;45412;54.472;18.464;2023-04-29T03:31:33;99677.51;;;5.71;57.39
59588;BME280;45412;54.472;18.464;2023-04-29T03:34:21;99678.63;;;5.73;56.42
59588;BME280;45412;54.472;18.464;2023-04-29T03:37:15;99678.11;;;5.75;56.23
59588;BME280;45412;54.472;18.464;2023-04-29T03:40:05;99679.85;;;5.78;56.10
59588;BME280;45412;54.472;18.464;2023-04-29T03:42:53;99679.08;;;5.82;56.01
59588;BME280;45412;54.472;18.464;2023-04-29T03:45:39;99680.73;;;5.87;55.06
59588;BME280;45412;54.472;18.464;2023-04-29T03:48:26;99679.02;;;5.91;55.11
59588;BME280;45412;54.472;18.464;2023-04-29T03:51:14;99678.20;;;5.96;54.94
59588;BME280;45412;54.472;18.464;2023-04-29T03:54:03;99681.20;;;6.02;54.89
59588;BME280;45412;54.472;18.464;2023-04-29T03:56:50;99683.52;;;6.07;54.48
59588;BME280;45412;54.472;18.464;2023-04-29T03:59:36;99680.89;;;6.12;54.49
59588;BME280;45412;54.472;18.464;2023-04-29T04:02:24;99680.16;;;6.18;53.85
59588;BME280;45412;54.472;18.464;2023-04-29T04:05:11;99678.59;;;6.23;54.10
59588;BME280;45412;54.472;18.464;2023-04-29T04:08:00;99679.31;;;6.28;54.16
59588;BME280;45412;54.472;18.464;2023-04-29T04:10:53;99673.69;;;6.34;53.80
59588;BME280;45412;54.472;18.464;2023-04-29T04:14:02;99672.19;;;6.40;53.64
59588;BME280;45412;54.472;18.464;2023-04-29T04:16:51;99671.27;;;6.46;53.45
59588;BME280;45412;54.472;18.464;2023-04-29T04:19:37;99669.64;;;6.52;53.52
59588;BME280;45412;54.472;18.464;2023-04-29T04:22:25;99671.27;;;6.59;53.51
59588;BME280;45412;54.472;18.464;2023-04-29T04:25:26;99668.33;;;6.67;53.06
59588;BME280;45412;54.472;18.464;2023-04-29T04:28:15;99670.91;;;6.75;53.41
59588;BME280;45412;54.472;18.464;2023-04-29T04:31:14;99664.34;;;6.84;53.32
59588;BME280;45412;54.472;18.464;2023-04-29T04:34:00;99662.38;;;6.92;53.18
59588;BME280;45412;54.472;18.464;2023-04-29T04:36:47;99665.05;;;6.99;52.91
59588;BME280;45412;54.472;18.464;2023-04-29T04:39:34;99667.94;;;7.06;52.58
59588;BME280;45412;54.472;18.464;2023-04-29T04:42:21;99665.73;;;7.12;52.66
59588;BME280;45412;54.472;18.464;2023-04-29T04:45:09;99660.98;;;7.22;52.67
59588;BME280;45412;54.472;18.464;2023-04-29T04:48:02;99658.40;;;7.34;52.64
59588;BME280;45412;54.472;18.464;2023-04-29T04:50:51;99660.38;;;7.48;52.75
59588;BME280;45412;54.472;18.464;2023-04-29T04:53:41;99660.82;;;7.60;51.81
59588;BME280;45412;54.472;18.464;2023-04-29T04:56:31;99658.40;;;7.69;51.82
59588;BME280;45412;54.472;18.464;2023-04-29T04:59:20;99657.89;;;7.78;51.50
59588;BME280;45412;54.472;18.464;2023-04-29T05:02:07;99656.18;;;7.85;51.41
59588;BME280;45412;54.472;18.464;2023-04-29T05:04:54;99658.39;;;7.91;51.15
59588;BME280;45412;54.472;18.464;2023-04-29T05:07:41;99653.52;;;7.97;51.20
59588;BME280;45412;54.472;18.464;2023-04-29T05:10:29;99656.45;;;8.03;50.74
59588;BME280;45412;54.472;18.464;2023-04-29T05:13:18;99658.17;;;8.04;50.89
59588;BME280;45412;54.472;18.464;2023-04-29T05:16:05;99652.84;;;8.04;50.84
59588;BME280;45412;54.472;18.464;2023-04-29T05:18:52;99651.87;;;8.03;50.89
59588;BME280;45412;54.472;18.464;2023-04-29T05:21:41;99648.79;;;8.04;51.15
59588;BME280;45412;54.472;18.464;2023-04-29T05:24:29;99644.41;;;8.03;51.35
59588;BME280;45412;54.472;18.464;2023-04-29T05:27:16;99645.39;;;8.09;51.57
59588;BME280;45412;54.472;18.464;2023-04-29T05:30:03;99650.59;;;8.11;51.10
59588;BME280;45412;54.472;18.464;2023-04-29T05:32:49;99646.63;;;8.12;51.43
59588;BME280;45412;54.472;18.464;2023-04-29T05:35:37;99648.48;;;8.13;51.35
59588;BME280;45412;54.472;18.464;2023-04-29T05:38:26;99648.35;;;8.10;51.24
59588;BME280;45412;54.472;18.464;2023-04-29T05:41:22;99639.80;;;8.11;51.62
59588;BME280;45412;54.472;18.464;2023-04-29T05:44:24;99639.96;;;8.11;51.31
59588;BME280;45412;54.472;18.464;2023-04-29T05:47:11;99644.25;;;8.06;51.10
59588;BME280;45412;54.472;18.464;2023-04-29T05:50:00;99641.42;;;8.08;51.47
59588;BME280;45412;54.472;18.464;2023-04-29T05:52:47;99636.05;;;8.16;51.72
59588;BME280;45412;54.472;18.464;2023-04-29T05:55:34;99635.16;;;8.28;51.42
59588;BME280;45412;54.472;18.464;2023-04-29T05:58:21;99632.09;;;8.41;51.27
59588;BME280;45412;54.472;18.464;2023-04-29T06:01:08;99629.09;;;8.58;51.15
59588;BME280;45412;54.472;18.464;2023-04-29T06:03:55;99627.20;;;8.82;51.12
59588;BME280;45412;54.472;18.464;2023-04-29T06:06:55;99629.67;;;9.05;50.36
59588;BME280;45412;54.472;18.464;2023-04-29T06:10:02;99625.09;;;9.34;49.72
59588;BME280;45412;54.472;18.464;2023-04-29T06:12:51;99631.38;;;9.71;48.97
59588;BME280;45412;54.472;18.464;2023-04-29T06:15:46;99633.17;;;10.12;47.76
59588;BME280;45412;54.472;18.464;2023-04-29T06:18:33;99627.52;;;10.49;46.76
59588;BME280;45412;54.472;18.464;2023-04-29T06:21:20;99626.46;;;10.80;45.89
59588;BME280;45412;54.472;18.464;2023-04-29T06:24:06;99626.48;;;10.97;45.47
59588;BME280;45412;54.472;18.464;2023-04-29T06:26:54;99622.77;;;11.29;45.19
59588;BME280;45412;54.472;18.464;2023-04-29T06:29:41;99622.48;;;11.65;44.70
59588;BME280;45412;54.472;18.464;2023-04-29T06:32:28;99618.15;;;12.15;43.92
59588;BME280;45412;54.472;18.464;2023-04-29T06:35:16;99611.04;;;12.67;43.13
59588;BME280;45412;54.472;18.464;2023-04-29T06:38:25;99611.38;;;13.26;41.03
59588;BME280;45412;54.472;18.464;2023-04-29T06:41:43;99609.66;;;14.04;40.53
59588;BME280;45412;54.472;18.464;2023-04-29T06:44:51;99607.04;;;14.83;38.18
59588;BME280;45412;54.472;18.464;2023-04-29T06:48:06;99603.02;;;15.61;37.28
59588;BME280;45412;54.472;18.464;2023-04-29T06:51:06;99603.65;;;16.45;35.85
59588;BME280;45412;54.472;18.464;2023-04-29T06:53:55;99603.17;;;17.30;34.93
59588;BME280;45412;54.472;18.464;2023-04-29T06:56:42;99602.13;;;18.00;32.82
59588;BME280;45412;54.472;18.464;2023-04-29T06:59:29;99598.39;;;18.49;32.27
59588;BME280;45412;54.472;18.464;2023-04-29T07:02:15;99593.58;;;18.76;31.68
59588;BME280;45412;54.472;18.464;2023-04-29T07:05:02;99591.90;;;18.90;30.85
59588;BME280;45412;54.472;18.464;2023-04-29T07:07:50;99590.33;;;18.71;30.99
59588;BME280;45412;54.472;18.464;2023-04-29T07:10:37;99587.79;;;18.47;31.39
59588;BME280;45412;54.472;18.464;2023-04-29T07:13:25;99589.43;;;18.32;31.79
59588;BME280;45412;54.472;18.464;2023-04-29T07:16:18;99592.20;;;18.16;32.13
59588;BME280;45412;54.472;18.464;2023-04-29T07:19:07;99588.64;;;17.77;31.74
59588;BME280;45412;54.472;18.464;2023-04-29T07:21:55;99586.83;;;17.62;32.10
59588;BME280;45412;54.472;18.464;2023-04-29T07:24:42;99586.23;;;18.02;31.80
59588;BME280;45412;54.472;18.464;2023-04-29T07:27:29;99578.63;;;18.58;31.67
59588;BME280;45412;54.472;18.464;2023-04-29T07:30:17;99573.93;;;19.06;30.57
59588;BME280;45412;54.472;18.464;2023-04-29T07:33:04;99572.98;;;19.70;30.42
59588;BME280;45412;54.472;18.464;2023-04-29T07:35:52;99575.10;;;20.38;29.94
59588;BME280;45412;54.472;18.464;2023-04-29T07:38:39;99570.13;;;20.96;29.04
59588;BME280;45412;54.472;18.464;2023-04-29T07:41:26;99564.92;;;21.47;27.65
59588;BME280;45412;54.472;18.464;2023-04-29T07:44:13;99561.90;;;22.25;27.30
59588;BME280;45412;54.472;18.464;2023-04-29T07:47:00;99558.77;;;22.93;26.72
59588;BME280;45412;54.472;18.464;2023-04-29T07:49:47;99562.80;;;23.59;25.67
59588;BME280;45412;54.472;18.464;2023-04-29T07:52:33;99563.38;;;24.07;24.54
59588;BME280;45412;54.472;18.464;2023-04-29T07:55:20;99565.23;;;24.43;23.50
59588;BME280;45412;54.472;18.464;2023-04-29T07:58:07;99565.98;;;24.93;23.05
59588;BME280;45412;54.472;18.464;2023-04-29T08:00:53;99561.33;;;24.83;22.86
59588;BME280;45412;54.472;18.464;2023-04-29T08:03:40;99561.37;;;25.14;22.96
59588;BME280;45412;54.472;18.464;2023-04-29T08:06:28;99558.44;;;25.52;22.48
59588;BME280;45412;54.472;18.464;2023-04-29T08:09:15;99556.05;;;25.80;22.20
59588;BME280;45412;54.472;18.464;2023-04-29T08:12:02;99554.33;;;26.14;21.46
59588;BME280;45412;54.472;18.464;2023-04-29T08:14:49;99553.72;;;26.47;21.49
59588;BME280;45412;54.472;18.464;2023-04-29T08:17:36;99549.58;;;26.83;20.69
59588;BME280;45412;54.472;18.464;2023-04-29T08:20:23;99545.58;;;27.15;20.21
59588;BME280;45412;54.472;18.464;2023-04-29T08:23:12;99548.14;;;27.41;19.92
59588;BME280;45412;54.472;18.464;2023-04-29T08:26:01;99546.20;;;27.85;19.90
59588;BME280;45412;54.472;18.464;2023-04-29T08:28:48;99551.36;;;27.83;19.77
59588;BME280;45412;54.472;18.464;2023-04-29T08:31:40;99546.98;;;27.11;19.93
59588;BME280;45412;54.472;18.464;2023-04-29T08:34:27;99542.55;;;27.37;20.06
59588;BME280;45412;54.472;18.464;2023-04-29T08:37:14;99545.23;;;27.74;19.88
59588;BME280;45412;54.472;18.464;2023-04-29T08:40:05;99545.04;;;27.20;19.22
59588;BME280;45412;54.472;18.464;2023-04-29T08:42:54;99541.37;;;27.23;19.89
59588;BME280;45412;54.472;18.464;2023-04-29T08:45:41;99536.97;;;27.64;20.08
59588;BME280;45412;54.472;18.464;2023-04-29T08:48:29;99532.06;;;27.84;19.59
59588;BME280;45412;54.472;18.464;2023-04-29T08:51:16;99533.52;;;28.13;19.14
59588;BME280;45412;54.472;18.464;2023-04-29T08:54:04;99527.90;;;28.21;18.83
59588;BME280;45412;54.472;18.464;2023-04-29T08:56:52;99530.88;;;27.97;18.93
59588;BME280;45412;54.472;18.464;2023-04-29T08:59:41;99529.05;;;27.80;20.02
59588;BME280;45412;54.472;18.464;2023-04-29T09:02:29;99526.27;;;27.77;19.80
59588;BME280;45412;54.472;18.464;2023-04-29T09:05:16;99520.61;;;27.76;20.09
59588;BME280;45412;54.472;18.464;2023-04-29T09:08:04;99521.27;;;27.74;20.10
59588;BME280;45412;54.472;18.464;2023-04-29T09:10:58;99522.92;;;27.74;20.01
59588;BME280;45412;54.472;18.464;2023-04-29T09:13:45;99534.52;;;26.82;20.38
59588;BME280;45412;54.472;18.464;2023-04-29T09:16:31;99534.17;;;25.82;21.32
59588;BME280;45412;54.472;18.464;2023-04-29T09:19:35;99529.45;;;25.10;22.24
59588;BME280;45412;54.472;18.464;2023-04-29T09:22:22;99529.88;;;24.53;23.14
59588;BME280;45412;54.472;18.464;2023-04-29T09:25:12;99524.70;;;24.06;24.45
59588;BME280;45412;54.472;18.464;2023-04-29T09:28:14;99525.41;;;23.57;24.97
59588;BME280;45412;54.472;18.464;2023-04-29T09:31:02;99525.77;;;22.84;25.81
59588;BME280;45412;54.472;18.464;2023-04-29T09:33:55;99524.19;;;22.68;26.51
59588;BME280;45412;54.472;18.464;2023-04-29T09:36:46;99523.18;;;22.74;27.07
59588;BME280;45412;54.472;18.464;2023-04-29T09:39:39;99518.80;;;22.85;27.16
59588;BME280;45412;54.472;18.464;2023-04-29T09:42:25;99515.14;;;23.00;27.07
59588;BME280;45412;54.472;18.464;2023-04-29T09:45:12;99512.77;;;23.12;27.43
59588;BME280;45412;54.472;18.464;2023-04-29T09:48:05;99513.84;;;23.28;27.07
59588;BME280;45412;54.472;18.464;2023-04-29T09:51:00;99516.25;;;23.60;26.93
59588;BME280;45412;54.472;18.464;2023-04-29T09:53:48;99517.34;;;23.73;26.92
59588;BME280;45412;54.472;18.464;2023-04-29T09:56:49;99515.83;;;23.82;26.90
59588;BME280;45412;54.472;18.464;2023-04-29T09:59:40;99516.14;;;23.99;27.14
59588;BME280;45412;54.472;18.464;2023-04-29T10:02:30;99523.08;;;24.68;26.49
59588;BME280;45412;54.472;18.464;2023-04-29T10:05:17;99528.89;;;25.59;25.50
59588;BME280;45412;54.472;18.464;2023-04-29T10:08:05;99535.88;;;25.83;25.00
59588;BME280;45412;54.472;18.464;2023-04-29T10:10:52;99534.05;;;25.95;24.92
59588;BME280;45412;54.472;18.464;2023-04-29T10:13:45;99530.73;;;25.66;25.07
59588;BME280;45412;54.472;18.464;2023-04-29T10:16:59;99526.92;;;25.40;25.58
59588;BME280;45412;54.472;18.464;2023-04-29T10:20:00;99525.00;;;24.64;26.80
59588;BME280;45412;54.472;18.464;2023-04-29T10:22:52;99527.33;;;23.73;27.99
59588;BME280;45412;54.472;18.464;2023-04-29T10:25:45;99525.37;;;22.92;29.21
59588;BME280;45412;54.472;18.464;2023-04-29T10:28:35;99530.44;;;22.02;30.26
59588;BME280;45412;54.472;18.464;2023-04-29T10:31:26;99529.65;;;21.08;31.80
59588;BME280;45412;54.472;18.464;2023-04-29T10:34:17;99525.17;;;20.06;33.35
59588;BME280;45412;54.472;18.464;2023-04-29T10:37:08;99523.37;;;18.91;35.43
59588;BME280;45412;54.472;18.464;2023-04-29T10:40:16;99524.46;;;18.24;36.75
59588;BME280;45412;54.472;18.464;2023-04-29T10:43:04;99534.41;;;17.60;38.15
59588;BME280;45412;54.472;18.464;2023-04-29T10:46:27;99533.54;;;17.31;39.06
59588;BME280;45412;54.472;18.464;2023-04-29T10:49:16;99530.67;;;17.03;39.76
59588;BME280;45412;54.472;18.464;2023-04-29T10:52:06;99526.50;;;16.74;40.65
59588;BME280;45412;54.472;18.464;2023-04-29T10:55:02;99534.34;;;16.68;41.15
59588;BME280;45412;54.472;18.464;2023-04-29T10:57:53;99530.24;;;16.57;41.74
59588;BME280;45412;54.472;18.464;2023-04-29T11:00:42;99530.21;;;16.39;42.38
59588;BME280;45412;54.472;18.464;2023-04-29T11:04:06;99529.83;;;16.25;42.64
59588;BME280;45412;54.472;18.464;2023-04-29T11:06:56;99534.63;;;16.14;43.21
59588;BME280;45412;54.472;18.464;2023-04-29T11:09:50;99531.10;;;16.05;43.51
59588;BME280;45412;54.472;18.464;2023-04-29T11:12:36;99534.59;;;15.99;43.97
59588;BME280;45412;54.472;18.464;2023-04-29T11:15:23;99539.30;;;15.90;44.48
59588;BME280;45412;54.472;18.464;2023-04-29T11:18:10;99541.09;;;15.83;45.06
59588;BME280;45412;54.472;18.464;2023-04-29T11:23:58;99541.20;;;15.62;46.24
59588;BME280;45412;54.472;18.464;2023-04-29T11:26:46;99537.84;;;15.47;46.73
59588;BME280;45412;54.472;18.464;2023-04-29T11:29:37;99538.36;;;15.30;47.84
59588;BME280;45412;54.472;18.464;2023-04-29T11:32:29;99541.66;;;14.88;48.83
59588;BME280;45412;54.472;18.464;2023-04-29T11:35:17;99537.58;;;14.65;49.47
59588;BME280;45412;54.472;18.464;2023-04-29T11:38:09;99539.71;;;14.48;50.50
59588;BME280;45412;54.472;18.464;2023-04-29T11:40:58;99536.18;;;14.35;50.84
59588;BME280;45412;54.472;18.464;2023-04-29T11:43:46;99542.84;;;14.20;51.71
59588;BME280;45412;54.472;18.464;2023-04-29T11:46:33;99551.62;;;13.98;52.33
59588;BME280;45412;54.472;18.464;2023-04-29T11:49:19;99555.58;;;13.85;52.83
59588;BME280;45412;54.472;18.464;2023-04-29T11:52:06;99561.80;;;13.78;53.20
59588;BME280;45412;54.472;18.464;2023-04-29T11:54:57;99554.42;;;13.79;53.40
59588;BME280;45412;54.472;18.464;2023-04-29T11:57:48;99553.65;;;13.71;53.70
59588;BME280;45412;54.472;18.464;2023-04-29T12:00:36;99552.31;;;13.72;53.75
59588;BME280;45412;54.472;18.464;2023-04-29T12:03:23;99552.45;;;13.65;54.27
59588;BME280;45412;54.472;18.464;2023-04-29T12:06:12;99551.83;;;13.56;54.58
59588;BME280;45412;54.472;18.464;2023-04-29T12:08:59;99550.70;;;13.57;54.62
59588;BME280;45412;54.472;18.464;2023-04-29T12:11:48;99543.27;;;13.56;54.60
59588;BME280;45412;54.472;18.464;2023-04-29T12:14:39;99541.08;;;13.64;54.53
59588;BME280;45412;54.472;18.464;2023-04-29T12:17:31;99543.04;;;13.73;54.10
59588;BME280;45412;54.472;18.464;2023-04-29T12:20:19;99534.76;;;13.89;53.66
59588;BME280;45412;54.472;18.464;2023-04-29T12:23:26;99530.35;;;14.06;53.51
59588;BME280;45412;54.472;18.464;2023-04-29T12:26:13;99527.45;;;14.21;53.44
59588;BME280;45412;54.472;18.464;2023-04-29T12:29:01;99521.14;;;14.41;52.49
59588;BME280;45412;54.472;18.464;2023-04-29T12:31:51;99518.23;;;14.53;51.25
59588;BME280;45412;54.472;18.464;2023-04-29T12:34:40;99515.27;;;14.49;50.48
59588;BME280;45412;54.472;18.464;2023-04-29T12:37:27;99519.01;;;14.47;50.08
59588;BME280;45412;54.472;18.464;2023-04-29T12:40:14;99521.54;;;14.51;49.57
59588;BME280;45412;54.472;18.464;2023-04-29T12:43:09;99518.00;;;14.54;49.67
59588;BME280;45412;54.472;18.464;2023-04-29T12:46:04;99520.11;;;14.59;49.32
59588;BME280;45412;54.472;18.464;2023-04-29T12:48:52;99519.38;;;14.61;48.86
59588;BME280;45412;54.472;18.464;2023-04-29T12:51:38;99518.58;;;14.54;48.59
59588;BME280;45412;54.472;18.464;2023-04-29T12:54:26;99514.52;;;14.39;48.80
59588;BME280;45412;54.472;18.464;2023-04-29T12:57:13;99512.05;;;14.33;49.26
59588;BME280;45412;54.472;18.464;2023-04-29T13:00:00;99503.19;;;14.28;49.47
59588;BME280;45412;54.472;18.464;2023-04-29T13:02:46;99508.77;;;14.29;49.61
59588;BME280;45412;54.472;18.464;2023-04-29T13:05:33;99507.84;;;14.27;49.84
59588;BME280;45412;54.472;18.464;2023-04-29T13:08:21;99504.94;;;14.26;49.98
59588;BME280;45412;54.472;18.464;2023-04-29T13:11:08;99505.86;;;14.24;50.05
59588;BME280;45412;54.472;18.464;2023-04-29T13:13:54;99509.41;;;14.19;50.18
59588;BME280;45412;54.472;18.464;2023-04-29T13:16:41;99505.83;;;14.19;50.34
59588;BME280;45412;54.472;18.464;2023-04-29T13:19:27;99501.23;;;14.15;50.79
59588;BME280;45412;54.472;18.464;2023-04-29T13:22:33;99497.74;;;14.16;50.96
59588;BME280;45412;54.472;18.464;2023-04-29T13:25:21;99502.56;;;14.15;51.17
59588;BME280;45412;54.472;18.464;2023-04-29T13:28:07;99495.63;;;14.14;51.20
59588;BME280;45412;54.472;18.464;2023-04-29T13:30:56;99500.55;;;14.11;51.38
59588;BME280;45412;54.472;18.464;2023-04-29T13:33:43;99495.96;;;14.05;51.48
59588;BME280;45412;54.472;18.464;2023-04-29T13:36:30;99502.83;;;14.05;51.34
59588;BME280;45412;54.472;18.464;2023-04-29T13:39:16;99502.08;;;14.02;51.77
59588;BME280;45412;54.472;18.464;2023-04-29T13:42:06;99501.30;;;13.99;51.85
59588;BME280;45412;54.472;18.464;2023-04-29T13:44:54;99504.84;;;13.90;51.80
59588;BME280;45412;54.472;18.464;2023-04-29T13:47:42;99507.96;;;13.87;51.82
59588;BME280;45412;54.472;18.464;2023-04-29T13:50:51;99501.46;;;13.81;52.08
59588;BME280;45412;54.472;18.464;2023-04-29T13:53:41;99501.29;;;13.76;52.10
59588;BME280;45412;54.472;18.464;2023-04-29T13:56:32;99499.30;;;13.72;52.02
59588;BME280;45412;54.472;18.464;2023-04-29T13:59:22;99498.94;;;13.76;52.02
59588;BME280;45412;54.472;18.464;2023-04-29T14:02:11;99503.83;;;13.77;52.25
59588;BME280;45412;54.472;18.464;2023-04-29T14:05:01;99501.14;;;13.79;51.96
59588;BME280;45412;54.472;18.464;2023-04-29T14:07:49;99503.08;;;13.79;52.17
59588;BME280;45412;54.472;18.464;2023-04-29T14:10:36;99499.54;;;13.72;52.48
59588;BME280;45412;54.472;18.464;2023-04-29T14:13:24;99502.21;;;13.64;52.91
59588;BME280;45412;54.472;18.464;2023-04-29T14:16:10;99502.28;;;13.54;53.14
59588;BME280;45412;54.472;18.464;2023-04-29T14:19:00;99499.38;;;13.52;53.52
59588;BME280;45412;54.472;18.464;2023-04-29T14:21:49;99499.98;;;13.47;53.82
59588;BME280;45412;54.472;18.464;2023-04-29T14:24:39;99500.95;;;13.45;53.61
59588;BME280;45412;54.472;18.464;2023-04-29T14:27:26;99493.39;;;13.44;53.77
59588;BME280;45412;54.472;18.464;2023-04-29T14:30:15;99493.52;;;13.50;53.64
59588;BME280;45412;54.472;18.464;2023-04-29T14:33:04;99488.63;;;13.59;53.52
59588;BME280;45412;54.472;18.464;2023-04-29T14:35:51;99484.95;;;13.62;53.44
59588;BME280;45412;54.472;18.464;2023-04-29T14:38:38;99483.34;;;13.70;53.47
59588;BME280;45412;54.472;18.464;2023-04-29T14:41:25;99480.82;;;13.77;53.39
59588;BME280;45412;54.472;18.464;2023-04-29T14:44:12;99482.05;;;13.84;53.53
59588;BME280;45412;54.472;18.464;2023-04-29T14:46:59;99477.46;;;13.82;53.70
59588;BME280;45412;54.472;18.464;2023-04-29T14:49:45;99476.02;;;13.82;53.71
59588;BME280;45412;54.472;18.464;2023-04-29T14:52:32;99478.04;;;13.83;53.88
59588;BME280;45412;54.472;18.464;2023-04-29T14:55:18;99475.73;;;13.92;53.59
59588;BME280;45412;54.472;18.464;2023-04-29T14:58:05;99472.02;;;14.06;53.51
59588;BME280;45412;54.472;18.464;2023-04-29T15:00:53;99471.95;;;14.15;53.42